Aérodrome :
LOGIN :

S'inscrire | Disclaimer

   EN    FR    IT 

 










Légende :    VFR   VFR Marginal   IFR   IFR Intensif   IFR Très Intensif
Visi : 
Plafond : 
>= 8 km
>= 3000ft
5 à 8 km
1000 à 3000 ft
1500m à 5 km
500 à 1000 ft
800 à 1500m
200 à 500 ft
< 800m
< 200 ft
Symboles :   Orages  Brouillard  Fortes neiges  Fortes précipitations  Vent > 20 kt
SIGMETs :   Divers  Orages  Givrage  Turbulence  Onde Orograph.  Cendres Volcan.







- Altitude de l'aérodrome : 526 ft
- Code IATA : LTN
- Voir les cartes d'approche


EGGW - London Luton

DERNIER METAR :
  • 181220Z AUTO 09010KT 9999 SCT035 19/11 Q1023

METARs EXPIRÉS :
  • 181150Z AUTO 10009KT 9999 SCT035 18/11 Q1023
  • 181120Z AUTO 07008KT 9999 FEW026 18/12 Q1023
  • 181050Z AUTO 04007KT 010V080 6000 NCD 16/12 Q1023
  • 181020Z AUTO 04007KT 010V070 5000 HZ NCD 15/12 Q1023
  • 180950Z AUTO 03007KT 4500 HZ NCD 12/11 Q1023

TAF AMD TAF EGGW
Valide du 18 à 12h jusqu'au 19 à 12h UTC


181132Z 1812/1912 09010KT 9999 FEW040
PROB30
TEMPO 1812/1818 9000
BECMG 1818/1821 03005KT 7000
BECMG 1909/1912 09010KT 9999
ATIS : +44 1582 395 204
Pas de NOTAMs connus pour ce terrain.



MET'MAP, la Météo Aéronautique d'un coup d'oeil ! - Copyright ORBIFLY Décembre 2007 - Disclaimer

ORBIFLY MET'MAP TEAM :

Programmation & Développement : Alexandra Zaïnal
Conception & Développement : Baudouin d'Aumeries
Co-Programmation & Développement : Marc-Olivier Méhu
Soutien technique & logistique : Manuel Goepfert

Contact : metmap@orbifly.com




SOURCES & CREDITS :

   NOAA